Time;durP1;ratioP1;P1;durP2;ratioP2;P2;SDS_P1;SDS_P2;PMS_P1;PMS_P2;Temp;Humidity;BMP_temperature;BMP_pressure;BME280_temperature;BME280_humidity;BME280_pressure;Samples;Min_cycle;Max_cycle;Signal;HPM_P1;HPM_P2
2023/08/17 00:01:34;;;;;;;15.73;7.30;;;18.20;99.90;;;;;;5043424;28;20691;-56
2023/08/17 00:04:00;;;;;;;9.40;5.27;;;18.20;99.90;;;;;;5044552;28;20193;-56
2023/08/17 00:06:26;;;;;;;11.30;5.30;;;18.20;99.90;;;;;;5037194;28;20298;-56
2023/08/17 00:08:51;;;;;;;13.00;5.50;;;18.10;99.90;;;;;;5038890;28;20187;-55
2023/08/17 00:11:17;;;;;;;9.77;5.90;;;18.10;99.90;;;;;;5044448;28;20293;-54
2023/08/17 00:13:42;;;;;;;8.20;5.70;;;18.10;99.90;;;;;;5044177;28;20194;-55
2023/08/17 00:16:08;;;;;;;11.87;6.70;;;18.10;99.90;;;;;;5037700;28;20175;-55
2023/08/17 00:18:34;;;;;;;9.83;6.10;;;18.10;99.90;;;;;;5038838;28;20219;-55
2023/08/17 00:21:00;;;;;;;11.37;6.20;;;18.00;99.90;;;;;;5038581;28;20250;-56
2023/08/17 00:23:25;;;;;;;14.10;6.27;;;18.00;99.90;;;;;;5040036;28;20233;-56
2023/08/17 00:25:51;;;;;;;8.87;6.50;;;18.00;99.90;;;;;;5045671;28;20707;-55
2023/08/17 00:28:16;;;;;;;7.83;5.60;;;18.00;99.90;;;;;;5040522;28;20692;-55
2023/08/17 00:30:42;;;;;;;12.57;6.63;;;18.00;99.90;;;;;;5039098;28;20186;-55
2023/08/17 00:33:07;;;;;;;11.90;6.20;;;18.00;99.90;;;;;;5042210;28;20707;-55
2023/08/17 00:35:33;;;;;;;6.27;5.60;;;17.90;99.90;;;;;;5041306;28;20262;-56
2023/08/17 00:38:00;;;;;;;9.23;5.60;;;17.90;99.90;;;;;;5041263;28;20203;-56
2023/08/17 00:40:25;;;;;;;11.73;6.00;;;17.90;99.90;;;;;;5042387;28;20183;-55
2023/08/17 00:42:51;;;;;;;7.60;5.90;;;17.90;99.90;;;;;;5043789;28;20463;-57
2023/08/17 00:45:18;;;;;;;10.83;5.60;;;17.80;99.90;;;;;;5042799;28;20240;-55
2023/08/17 00:47:44;;;;;;;10.13;6.10;;;17.80;99.90;;;;;;5042974;28;20503;-56
2023/08/17 00:50:11;;;;;;;8.47;6.37;;;17.80;99.90;;;;;;5038417;28;20434;-56
2023/08/17 00:52:38;;;;;;;10.60;5.50;;;17.80;99.90;;;;;;5040652;28;20206;-56
2023/08/17 00:55:05;;;;;;;13.27;6.27;;;17.80;99.90;;;;;;5046052;28;20461;-56
2023/08/17 00:57:31;;;;;;;10.37;6.47;;;17.80;99.90;;;;;;5040386;28;20453;-56
2023/08/17 00:59:58;;;;;;;10.60;5.70;;;17.80;99.90;;;;;;5044210;28;20525;-56
2023/08/17 01:02:25;;;;;;;9.83;7.27;;;17.80;99.90;;;;;;5043640;28;20437;-55
2023/08/17 01:04:50;;;;;;;7.20;6.50;;;17.70;99.90;;;;;;5047053;28;20503;-56
2023/08/17 01:07:16;;;;;;;11.13;6.93;;;17.70;99.90;;;;;;5044524;28;20965;-54
2023/08/17 01:09:42;;;;;;;8.43;6.63;;;17.70;99.90;;;;;;5041307;28;21153;-55
2023/08/17 01:12:24;;;;;;;11.67;7.40;;;17.70;99.90;;;;;;5041435;28;20249;-56
2023/08/17 01:14:49;;;;;;;8.37;5.50;;;17.70;99.90;;;;;;5043405;28;20460;-55
2023/08/17 01:17:33;;;;;;;6.40;5.67;;;17.70;99.90;;;;;;5041144;28;20441;-55
2023/08/17 01:19:59;;;;;;;6.83;5.40;;;17.70;99.90;;;;;;5039691;28;20211;-55
2023/08/17 01:22:28;;;;;;;7.30;5.70;;;17.70;99.90;;;;;;5037478;28;20448;-56
2023/08/17 01:24:59;;;;;;;7.83;5.33;;;17.70;99.90;;;;;;5037025;28;20439;-55
2023/08/17 01:27:25;;;;;;;6.47;5.87;;;17.60;99.90;;;;;;5040440;28;21159;-55
2023/08/17 01:29:52;;;;;;;9.47;6.20;;;17.60;99.90;;;;;;5037912;28;20476;-56
2023/08/17 01:33:03;;;;;;;16.37;6.93;;;17.60;99.90;;;;;;5042916;28;21270;-55
2023/08/17 01:35:51;;;;;;;16.13;6.27;;;17.60;99.90;;;;;;5040061;28;20471;-55
2023/08/17 01:38:18;;;;;;;35.20;7.27;;;17.60;99.90;;;;;;5034173;28;20577;-55
2023/08/17 01:40:47;;;;;;;28.07;7.77;;;17.60;99.90;;;;;;5039787;28;20460;-55
2023/08/17 01:43:14;;;;;;;24.10;8.00;;;17.50;99.90;;;;;;5039143;28;20911;-56
2023/08/17 01:45:40;;;;;;;12.07;7.97;;;17.50;99.90;;;;;;5044612;28;20425;-56
2023/08/17 01:48:06;;;;;;;24.27;8.43;;;17.50;99.90;;;;;;5041423;28;20457;-56
2023/08/17 01:50:31;;;;;;;9.97;7.93;;;17.50;99.90;;;;;;5049210;28;20631;-54
2023/08/17 01:52:57;;;;;;;14.03;7.60;;;17.50;99.90;;;;;;5043151;28;20183;-56
2023/08/17 01:55:23;;;;;;;12.83;8.00;;;17.50;99.90;;;;;;5050046;28;20197;-56
2023/08/17 01:57:49;;;;;;;7.87;6.90;;;17.50;99.90;;;;;;5048479;28;20557;-56
2023/08/17 02:00:15;;;;;;;9.73;7.10;;;17.50;99.90;;;;;;5043084;28;20480;-56
2023/08/17 02:02:41;;;;;;;12.73;7.37;;;17.60;99.90;;;;;;5047016;28;20836;-56
2023/08/17 02:05:07;;;;;;;9.87;6.83;;;17.60;99.90;;;;;;5042527;28;20430;-55
2023/08/17 02:07:32;;;;;;;7.50;6.30;;;17.60;99.90;;;;;;5042916;28;20195;-55
2023/08/17 02:09:58;;;;;;;7.50;6.50;;;17.60;99.90;;;;;;5041759;28;20438;-56
2023/08/17 02:12:24;;;;;;;9.70;6.47;;;17.60;99.90;;;;;;5046202;28;20324;-56
2023/08/17 02:14:50;;;;;;;7.23;6.23;;;17.60;99.90;;;;;;5046310;28;20429;-55
2023/08/17 02:17:16;;;;;;;7.57;6.10;;;17.60;99.90;;;;;;5042794;28;20227;-55
2023/08/17 02:19:47;;;;;;;9.87;6.27;;;17.60;99.90;;;;;;5040004;28;20723;-55
2023/08/17 02:22:13;;;;;;;8.57;6.20;;;17.60;99.90;;;;;;5044216;28;20441;-56
2023/08/17 02:24:39;;;;;;;16.83;6.50;;;17.60;99.90;;;;;;5048460;28;20532;-55
2023/08/17 02:27:04;;;;;;;23.40;6.17;;;17.60;99.90;;;;;;5036794;28;20218;-55
2023/08/17 02:29:30;;;;;;;22.83;7.30;;;17.50;99.90;;;;;;5037921;28;20729;-56
2023/08/17 02:31:55;;;;;;;14.43;5.77;;;17.40;99.90;;;;;;5038710;28;20202;-56
2023/08/17 02:34:21;;;;;;;11.10;6.40;;;17.40;99.90;;;;;;5047917;28;20175;-55
2023/08/17 02:36:47;;;;;;;17.30;6.50;;;17.30;99.90;;;;;;5046734;28;20191;-54
2023/08/17 02:39:12;;;;;;;10.57;6.20;;;17.30;99.90;;;;;;5041812;28;20179;-56
2023/08/17 02:41:38;;;;;;;7.07;6.20;;;17.30;99.90;;;;;;5047067;28;20688;-56
2023/08/17 02:44:04;;;;;;;10.20;6.97;;;17.30;99.90;;;;;;5047339;28;20176;-55
2023/08/17 02:46:29;;;;;;;16.63;6.63;;;17.30;99.90;;;;;;5048779;28;20203;-56
2023/08/17 02:48:55;;;;;;;11.63;6.90;;;17.30;99.90;;;;;;5047627;28;20201;-55
2023/08/17 02:51:20;;;;;;;17.40;7.30;;;17.30;99.90;;;;;;5036424;28;20205;-56
2023/08/17 02:53:46;;;;;;;15.00;5.83;;;17.30;99.90;;;;;;5040856;28;20186;-55
2023/08/17 02:56:12;;;;;;;18.13;6.67;;;17.20;99.90;;;;;;5044354;28;20176;-55
2023/08/17 02:58:40;;;;;;;15.50;6.67;;;17.20;99.90;;;;;;5043132;28;20569;-55
2023/08/17 03:01:07;;;;;;;13.50;6.50;;;17.20;99.90;;;;;;5039112;28;20187;-54
2023/08/17 03:03:33;;;;;;;15.30;7.47;;;17.10;99.90;;;;;;5036509;28;20483;-54
2023/08/17 03:05:58;;;;;;;14.37;7.23;;;17.10;99.90;;;;;;5038235;28;20429;-55
2023/08/17 03:08:24;;;;;;;19.03;6.50;;;17.10;99.90;;;;;;5042248;28;20191;-56
2023/08/17 03:10:49;;;;;;;13.33;6.67;;;17.00;99.90;;;;;;5048608;28;20212;-55
2023/08/17 03:13:15;;;;;;;10.80;6.43;;;17.00;99.90;;;;;;5046224;28;20182;-55
2023/08/17 03:15:41;;;;;;;25.07;6.83;;;17.00;99.90;;;;;;5035706;28;20206;-55
2023/08/17 03:18:06;;;;;;;30.83;7.10;;;17.00;99.90;;;;;;5041442;28;20191;-55
2023/08/17 03:20:32;;;;;;;17.57;7.10;;;16.90;99.90;;;;;;5043721;28;20172;-55
2023/08/17 03:22:57;;;;;;;19.17;7.00;;;16.90;99.90;;;;;;5046493;28;20190;-55
2023/08/17 03:25:23;;;;;;;14.13;6.93;;;16.90;99.90;;;;;;5043059;28;20676;-56
2023/08/17 03:27:49;;;;;;;8.90;6.87;;;16.90;99.90;;;;;;5042126;28;20215;-55
2023/08/17 03:30:14;;;;;;;10.13;7.00;;;16.90;99.90;;;;;;5045160;28;20186;-56
2023/08/17 03:32:40;;;;;;;24.80;7.40;;;16.90;99.90;;;;;;5048341;28;20303;-55
2023/08/17 03:35:07;;;;;;;10.80;6.33;;;16.90;99.90;;;;;;5042093;28;20522;-55
2023/08/17 03:37:32;;;;;;;12.10;5.83;;;16.90;99.90;;;;;;5039254;28;20453;-55
2023/08/17 03:40:00;;;;;;;10.37;6.80;;;17.00;99.90;;;;;;5033508;28;20441;-55
2023/08/17 03:42:26;;;;;;;10.10;6.80;;;17.00;99.90;;;;;;5040909;28;20179;-55
2023/08/17 03:44:52;;;;;;;7.20;6.10;;;17.00;99.90;;;;;;5042004;28;20454;-55
2023/08/17 03:47:18;;;;;;;8.33;6.60;;;17.00;99.90;;;;;;5044658;28;20852;-55
2023/08/17 03:49:44;;;;;;;8.50;7.17;;;17.00;99.90;;;;;;5040431;28;21013;-56
2023/08/17 03:52:09;;;;;;;14.43;7.57;;;17.10;99.90;;;;;;5043076;28;20207;-55
2023/08/17 03:54:36;;;;;;;10.73;6.80;;;17.10;99.90;;;;;;5040406;28;20178;-57
2023/08/17 03:57:02;;;;;;;19.73;6.53;;;17.10;99.90;;;;;;5037057;28;20234;-57
2023/08/17 03:59:27;;;;;;;19.33;6.20;;;17.00;99.90;;;;;;5044207;28;20495;-55
2023/08/17 04:01:53;;;;;;;16.50;5.97;;;17.00;99.90;;;;;;5034191;28;20931;-55
2023/08/17 04:04:19;;;;;;;11.23;6.30;;;16.90;99.90;;;;;;5041394;28;20175;-55
2023/08/17 04:06:44;;;;;;;8.13;6.27;;;16.90;99.90;;;;;;5042925;28;20199;-55
2023/08/17 04:09:10;;;;;;;7.10;5.70;;;16.80;99.90;;;;;;5044306;28;20716;-56
2023/08/17 04:11:39;;;;;;;8.50;5.93;;;16.80;99.90;;;;;;5046214;28;20204;-55
2023/08/17 04:14:04;;;;;;;7.90;6.47;;;16.80;99.90;;;;;;5038380;28;20526;-56
2023/08/17 04:16:30;;;;;;;7.97;6.47;;;16.90;99.90;;;;;;5042038;28;20472;-56
2023/08/17 04:18:56;;;;;;;7.40;6.20;;;16.90;99.90;;;;;;5041117;28;20182;-55
2023/08/17 04:21:21;;;;;;;9.40;6.87;;;16.90;99.90;;;;;;5043346;28;20258;-56
2023/08/17 04:23:47;;;;;;;13.70;6.90;;;16.90;99.90;;;;;;5038255;28;20263;-56
2023/08/17 04:26:13;;;;;;;10.37;7.33;;;16.90;99.90;;;;;;5045746;28;20191;-55
2023/08/17 04:28:38;;;;;;;11.37;6.93;;;16.90;99.90;;;;;;5040431;28;20183;-55
2023/08/17 04:31:04;;;;;;;14.60;6.83;;;16.90;99.90;;;;;;5044112;28;20757;-55
2023/08/17 04:33:30;;;;;;;28.73;6.57;;;16.90;99.90;;;;;;5032937;28;20178;-56
2023/08/17 04:35:55;;;;;;;13.90;6.90;;;16.80;99.90;;;;;;5046228;28;20172;-55
2023/08/17 04:38:21;;;;;;;10.23;5.30;;;16.80;99.90;;;;;;5042505;28;20286;-57
2023/08/17 04:40:47;;;;;;;10.47;6.57;;;16.80;99.90;;;;;;5042916;28;20194;-54
2023/08/17 04:43:13;;;;;;;11.47;6.83;;;16.80;99.90;;;;;;5043250;28;20182;-56
2023/08/17 04:45:39;;;;;;;14.33;6.80;;;16.80;99.90;;;;;;5037326;28;20833;-55
2023/08/17 04:48:05;;;;;;;11.17;6.57;;;16.90;99.90;;;;;;5032601;28;20226;-57
2023/08/17 04:50:32;;;;;;;15.10;6.57;;;16.90;99.90;;;;;;5038284;28;20171;-56
2023/08/17 04:52:57;;;;;;;38.07;7.37;;;16.90;99.90;;;;;;5042947;28;20461;-57
2023/08/17 04:55:23;;;;;;;26.37;7.40;;;16.80;99.90;;;;;;5046016;28;20463;-58
2023/08/17 04:57:49;;;;;;;13.70;6.27;;;16.80;99.90;;;;;;5043103;28;20198;-55
2023/08/17 05:00:15;;;;;;;7.83;6.30;;;16.80;99.90;;;;;;5043696;28;20684;-58
2023/08/17 05:02:41;;;;;;;7.97;7.00;;;16.80;99.90;;;;;;5043834;28;20217;-56
2023/08/17 05:05:09;;;;;;;8.47;7.20;;;16.80;99.90;;;;;;5037361;28;20950;-56
2023/08/17 05:07:34;;;;;;;11.10;7.10;;;16.90;99.90;;;;;;5040822;28;20199;-56
2023/08/17 05:10:00;;;;;;;11.30;7.63;;;16.90;99.90;;;;;;5038218;28;20449;-57
2023/08/17 05:12:26;;;;;;;16.83;7.53;;;16.90;99.90;;;;;;5036481;28;20257;-58
2023/08/17 05:14:52;;;;;;;17.60;6.90;;;17.00;99.90;;;;;;5043446;28;20433;-57
2023/08/17 05:17:17;;;;;;;18.50;7.37;;;16.90;99.90;;;;;;5026465;28;20834;-56
2023/08/17 05:19:43;;;;;;;16.50;6.53;;;17.00;99.90;;;;;;5035469;28;20175;-57
2023/08/17 05:22:12;;;;;;;13.13;7.37;;;16.90;99.90;;;;;;5041233;28;20240;-57
2023/08/17 05:24:38;;;;;;;24.03;6.73;;;16.90;99.90;;;;;;5034280;28;20274;-59
2023/08/17 05:27:04;;;;;;;28.03;6.70;;;16.90;99.90;;;;;;5034151;28;21000;-56
2023/08/17 05:29:31;;;;;;;12.00;6.90;;;16.80;99.90;;;;;;5031603;28;21061;-56
2023/08/17 05:31:57;;;;;;;56.80;8.30;;;16.80;99.90;;;;;;5037040;28;20996;-55
2023/08/17 05:34:23;;;;;;;33.43;6.63;;;16.70;99.90;;;;;;5039279;28;20425;-55
2023/08/17 05:36:49;;;;;;;7.63;6.60;;;16.70;99.90;;;;;;5037704;28;20222;-54
2023/08/17 05:39:14;;;;;;;6.97;6.27;;;16.70;99.90;;;;;;5041086;28;20234;-56
2023/08/17 05:41:40;;;;;;;9.27;6.90;;;16.70;99.90;;;;;;5038748;28;20194;-57
2023/08/17 05:44:06;;;;;;;20.10;5.70;;;16.80;99.90;;;;;;5035735;28;20180;-58
2023/08/17 05:46:33;;;;;;;7.23;5.00;;;16.90;99.90;;;;;;5039624;28;20281;-56
2023/08/17 05:48:59;;;;;;;7.50;6.10;;;16.90;99.90;;;;;;5033451;28;20570;-57
2023/08/17 05:51:24;;;;;;;7.00;6.30;;;16.90;99.90;;;;;;5037271;28;20966;-56
2023/08/17 05:53:50;;;;;;;8.17;6.47;;;17.00;99.90;;;;;;5025123;28;20496;-57
2023/08/17 05:56:15;;;;;;;7.40;6.43;;;17.00;99.90;;;;;;5029256;28;20541;-57
2023/08/17 05:58:41;;;;;;;8.90;6.50;;;17.10;99.90;;;;;;5040102;28;20557;-56
2023/08/17 06:01:08;;;;;;;7.60;6.33;;;17.10;99.90;;;;;;5037088;28;20214;-57
2023/08/17 06:03:37;;;;;;;9.60;6.33;;;17.20;99.90;;;;;;5032284;28;20832;-55
2023/08/17 06:06:06;;;;;;;8.67;6.00;;;17.30;99.90;;;;;;5032111;28;20472;-56
2023/08/17 06:08:32;;;;;;;6.70;6.00;;;17.30;99.90;;;;;;5030266;28;20508;-56
2023/08/17 06:10:57;;;;;;;8.47;6.87;;;17.30;99.90;;;;;;5028663;28;20441;-57
2023/08/17 06:13:23;;;;;;;10.13;6.50;;;17.40;99.90;;;;;;5035202;28;20446;-58
2023/08/17 06:15:49;;;;;;;6.47;5.83;;;17.50;99.90;;;;;;5032539;28;20205;-55
2023/08/17 06:18:15;;;;;;;8.23;6.80;;;17.50;99.90;;;;;;5036246;28;20261;-57
2023/08/17 06:20:41;;;;;;;8.03;5.87;;;17.50;99.90;;;;;;5034840;28;20179;-56
2023/08/17 06:23:06;;;;;;;8.60;6.20;;;17.60;99.90;;;;;;5036033;28;20264;-57
2023/08/17 06:25:32;;;;;;;11.93;6.20;;;17.60;99.90;;;;;;5038176;28;20207;-56
2023/08/17 06:27:58;;;;;;;13.60;6.47;;;17.60;99.90;;;;;;5031133;28;20744;-56
2023/08/17 06:30:23;;;;;;;10.07;6.63;;;17.60;99.90;;;;;;5037891;28;20429;-55
2023/08/17 06:32:52;;;;;;;7.50;6.60;;;17.60;99.90;;;;;;5037420;28;20628;-57
2023/08/17 06:35:18;;;;;;;7.90;6.30;;;17.80;99.90;;;;;;5045307;28;20183;-56
2023/08/17 06:37:43;;;;;;;7.87;6.83;;;17.80;99.90;;;;;;5041300;28;20446;-57
2023/08/17 06:40:09;;;;;;;9.07;6.57;;;17.90;99.90;;;;;;5037602;28;20344;-57
2023/08/17 06:42:35;;;;;;;12.63;6.30;;;18.00;99.90;;;;;;5032866;28;20186;-57
2023/08/17 06:45:01;;;;;;;7.07;6.27;;;18.10;99.90;;;;;;5039095;28;20477;-56
2023/08/17 06:47:26;;;;;;;7.20;5.83;;;18.10;99.90;;;;;;5038036;28;20204;-56
2023/08/17 06:49:52;;;;;;;7.50;6.63;;;18.20;99.90;;;;;;5040867;28;20434;-57
2023/08/17 06:52:18;;;;;;;8.13;6.47;;;18.20;99.90;;;;;;5037027;28;20582;-56
2023/08/17 06:54:43;;;;;;;10.10;7.00;;;18.30;99.90;;;;;;5038612;28;20270;-55
2023/08/17 06:57:09;;;;;;;9.37;6.83;;;18.30;99.90;;;;;;5036916;28;20856;-54
2023/08/17 06:59:34;;;;;;;11.10;7.80;;;18.40;99.90;;;;;;5040385;28;20175;-54
2023/08/17 07:02:00;;;;;;;8.90;7.30;;;18.40;99.90;;;;;;5036476;28;20179;-56
2023/08/17 07:04:26;;;;;;;8.37;6.30;;;18.50;99.90;;;;;;5036387;28;20179;-57
2023/08/17 07:06:52;;;;;;;6.60;6.00;;;18.50;99.90;;;;;;5034135;28;20210;-57
2023/08/17 07:09:18;;;;;;;7.00;6.30;;;18.60;99.90;;;;;;5031312;28;20452;-57
2023/08/17 07:11:44;;;;;;;7.60;6.40;;;18.60;99.90;;;;;;5045940;28;20873;-57
2023/08/17 07:14:09;;;;;;;7.40;6.33;;;18.70;99.90;;;;;;5042490;28;20436;-56
2023/08/17 07:16:35;;;;;;;7.70;6.60;;;18.80;99.90;;;;;;5043991;28;20277;-59
2023/08/17 07:19:00;;;;;;;8.20;7.30;;;18.80;99.90;;;;;;5045177;28;20183;-58
2023/08/17 07:21:26;;;;;;;9.17;7.50;;;18.90;99.90;;;;;;5036500;28;20764;-57
2023/08/17 07:23:55;;;;;;;6.70;6.00;;;19.00;99.90;;;;;;5038599;28;20195;-58
2023/08/17 07:26:22;;;;;;;9.17;7.17;;;19.10;99.90;;;;;;5048695;28;20662;-57
2023/08/17 07:28:48;;;;;;;7.60;6.30;;;19.20;99.90;;;;;;5044592;28;20442;-57
2023/08/17 07:31:14;;;;;;;13.40;6.93;;;19.40;99.90;;;;;;5042668;28;20453;-57
2023/08/17 07:33:40;;;;;;;11.23;7.00;;;19.50;99.90;;;;;;5048588;28;20487;-58
2023/08/17 07:36:05;;;;;;;8.43;6.20;;;19.60;99.90;;;;;;5044264;28;20171;-58
2023/08/17 07:38:31;;;;;;;12.37;7.43;;;19.80;99.90;;;;;;5041733;28;20765;-57
2023/08/17 07:40:57;;;;;;;8.07;6.53;;;19.90;99.90;;;;;;5048391;28;20222;-57
2023/08/17 07:43:23;;;;;;;9.73;7.17;;;20.00;99.90;;;;;;5039445;28;20262;-58
2023/08/17 07:45:56;;;;;;;10.50;7.00;;;20.10;99.90;;;;;;5043376;28;20178;-57
2023/08/17 07:48:22;;;;;;;7.20;6.50;;;20.20;99.90;;;;;;5048493;28;20543;-57
2023/08/17 07:50:53;;;;;;;12.73;7.50;;;20.40;99.90;;;;;;5050311;28;20537;-58
2023/08/17 07:53:19;;;;;;;10.23;7.13;;;20.40;99.90;;;;;;5041495;28;20179;-58
2023/08/17 07:55:45;;;;;;;13.53;7.00;;;20.60;99.90;;;;;;5041478;28;20529;-56
2023/08/17 07:58:11;;;;;;;8.27;7.47;;;20.70;99.90;;;;;;5048035;28;20199;-55
2023/08/17 08:00:37;;;;;;;8.87;7.50;;;20.80;99.90;;;;;;5043150;28;20483;-56
2023/08/17 08:03:03;;;;;;;7.73;6.93;;;20.90;99.90;;;;;;5044792;28;20957;-56
2023/08/17 08:05:29;;;;;;;10.50;8.67;;;21.00;99.90;;;;;;5048501;28;20265;-55
2023/08/17 08:07:55;;;;;;;20.50;8.00;;;21.10;99.90;;;;;;5043704;28;20540;-56
2023/08/17 08:10:20;;;;;;;10.20;7.97;;;21.20;99.90;;;;;;5042348;28;20183;-56
2023/08/17 08:12:46;;;;;;;9.50;7.13;;;21.20;99.90;;;;;;5045844;28;20214;-56
2023/08/17 08:15:11;;;;;;;9.67;7.47;;;21.30;99.90;;;;;;5048990;28;20265;-57
2023/08/17 08:17:37;;;;;;;10.00;7.10;;;21.40;99.90;;;;;;5043124;28;20909;-57
2023/08/17 08:20:04;;;;;;;11.13;7.10;;;21.50;99.90;;;;;;5044781;28;20214;-57
2023/08/17 08:22:29;;;;;;;13.87;7.33;;;21.60;99.90;;;;;;5042649;28;20652;-57
2023/08/17 08:24:55;;;;;;;10.20;7.70;;;21.70;99.90;;;;;;5047778;28;20483;-55
2023/08/17 08:27:21;;;;;;;9.63;7.90;;;21.80;99.90;;;;;;5037496;28;20217;-57
2023/08/17 08:29:46;;;;;;;11.70;8.23;;;21.90;99.90;;;;;;5045705;28;20206;-56
2023/08/17 08:32:12;;;;;;;13.57;7.90;;;22.00;99.90;;;;;;5048752;28;20254;-56
2023/08/17 08:34:38;;;;;;;8.87;6.87;;;22.10;99.90;;;;;;5044520;28;20269;-57
2023/08/17 08:37:03;;;;;;;12.67;7.27;;;22.10;99.90;;;;;;5039228;28;20227;-57
2023/08/17 08:39:29;;;;;;;11.87;7.40;;;22.30;99.90;;;;;;5047813;28;20175;-56
2023/08/17 08:41:55;;;;;;;13.33;7.47;;;22.40;99.90;;;;;;5041387;28;20670;-55
2023/08/17 08:44:21;;;;;;;8.37;7.10;;;22.50;99.90;;;;;;5043592;28;20179;-58
2023/08/17 08:46:48;;;;;;;13.60;7.43;;;22.60;99.90;;;;;;5047580;28;20446;-56
2023/08/17 08:49:19;;;;;;;9.00;6.80;;;22.50;99.90;;;;;;5036596;28;20195;-56
2023/08/17 08:51:48;;;;;;;9.80;7.03;;;22.50;99.90;;;;;;5035727;28;21037;-56
2023/08/17 08:54:20;;;;;;;10.93;7.43;;;22.50;99.90;;;;;;5043709;28;20434;-56
2023/08/17 08:56:48;;;;;;;9.03;6.93;;;22.60;99.90;;;;;;5040477;28;20878;-57
2023/08/17 08:59:14;;;;;;;10.07;7.37;;;22.80;99.90;;;;;;5035631;28;20464;-56
2023/08/17 09:01:41;;;;;;;10.60;7.57;;;23.00;99.90;;;;;;5036563;28;20521;-56
2023/08/17 09:04:06;;;;;;;8.90;6.80;;;23.00;99.90;;;;;;5042077;28;20432;-57
2023/08/17 09:06:33;;;;;;;9.27;6.53;;;23.20;99.90;;;;;;5042270;28;20454;-56
2023/08/17 09:09:02;;;;;;;10.67;7.10;;;23.30;99.90;;;;;;5025565;28;20270;-57
2023/08/17 09:11:28;;;;;;;10.13;6.83;;;23.50;99.90;;;;;;5038851;28;20911;-57
2023/08/17 09:13:54;;;;;;;15.70;7.13;;;23.60;99.90;;;;;;5036758;28;20437;-57
2023/08/17 09:16:20;;;;;;;11.63;7.60;;;23.60;99.90;;;;;;5036976;28;20198;-56
2023/08/17 09:18:45;;;;;;;9.40;6.20;;;23.80;99.90;;;;;;5037658;28;20429;-56
2023/08/17 09:21:24;;;;;;;9.17;6.70;;;23.90;99.90;;;;;;5045900;28;22100;-57
2023/08/17 09:23:54;;;;;;;8.57;6.20;;;24.10;99.90;;;;;;5036255;28;20204;-58
2023/08/17 09:26:23;;;;;;;10.63;6.67;;;24.20;99.90;;;;;;5031324;28;20450;-57
2023/08/17 09:28:50;;;;;;;17.63;7.50;;;24.40;99.90;;;;;;5033278;28;20438;-57
2023/08/17 09:31:15;;;;;;;21.33;6.90;;;24.60;99.90;;;;;;5040386;28;20452;-57
2023/08/17 09:33:41;;;;;;;12.17;7.33;;;24.70;99.90;;;;;;5038964;28;20430;-57
2023/08/17 09:36:11;;;;;;;11.13;7.80;;;24.90;99.90;;;;;;5036287;28;20179;-58
2023/08/17 09:38:38;;;;;;;13.23;7.20;;;25.00;99.90;;;;;;5036406;28;20235;-58
2023/08/17 09:41:05;;;;;;;17.33;6.80;;;25.10;99.90;;;;;;5029957;28;20475;-56
2023/08/17 09:43:33;;;;;;;27.13;7.50;;;25.20;99.90;;;;;;5034230;28;20436;-57
2023/08/17 09:46:01;;;;;;;9.77;6.70;;;25.20;99.90;;;;;;5035793;28;20441;-57
2023/08/17 09:48:27;;;;;;;13.60;7.33;;;25.20;99.90;;;;;;5041947;28;20522;-57
2023/08/17 09:50:56;;;;;;;11.63;6.87;;;25.30;99.90;;;;;;5036175;28;20429;-57
2023/08/17 09:53:22;;;;;;;19.10;7.17;;;25.30;99.90;;;;;;5038894;28;20448;-58
2023/08/17 09:55:48;;;;;;;18.03;7.20;;;25.30;99.90;;;;;;5041758;28;20949;-57
2023/08/17 09:58:15;;;;;;;14.03;7.10;;;25.40;99.90;;;;;;5042054;28;20681;-57
2023/08/17 10:00:49;;;;;;;15.40;6.87;;;25.50;99.90;;;;;;5030968;28;20207;-57
2023/08/17 10:03:15;;;;;;;11.40;6.37;;;25.60;99.90;;;;;;5040915;28;20442;-57
2023/08/17 10:05:44;;;;;;;10.27;6.33;;;25.70;99.90;;;;;;5041549;28;20429;-57
2023/08/17 10:08:11;;;;;;;9.43;5.73;;;25.80;94.80;;;;;;5041997;28;20476;-57
2023/08/17 10:10:42;;;;;;;10.83;6.20;;;26.00;92.70;;;;;;5049977;28;20511;-58
2023/08/17 10:13:39;;;;;;;8.80;6.37;;;26.20;96.10;;;;;;5051576;28;20461;-55
2023/08/17 10:16:27;;;;;;;10.50;5.80;;;26.40;96.00;;;;;;5044752;28;20839;-57
2023/08/17 10:19:01;;;;;;;6.57;5.73;;;26.60;92.40;;;;;;5040532;28;20431;-57
2023/08/17 10:21:44;;;;;;;8.97;5.33;;;26.80;90.20;;;;;;5044718;28;20193;-57
2023/08/17 10:24:11;;;;;;;11.83;5.37;;;27.00;81.60;;;;;;5047763;28;20185;-57
2023/08/17 10:26:37;;;;;;;18.20;5.90;;;27.30;78.80;;;;;;5039136;28;20209;-57
2023/08/17 10:29:03;;;;;;;13.50;6.70;;;27.50;70.90;;;;;;5038394;28;20183;-56
2023/08/17 10:31:30;;;;;;;12.43;5.43;;;27.60;70.70;;;;;;5042874;28;20211;-58
2023/08/17 10:33:57;;;;;;;10.30;5.73;;;27.60;70.50;;;;;;5045163;28;20186;-57
2023/08/17 10:36:23;;;;;;;11.60;5.70;;;27.70;65.60;;;;;;5045915;28;20200;-57
2023/08/17 10:39:18;;;;;;;8.97;4.87;;;27.80;66.40;;;;;;5050546;28;20175;-57
2023/08/17 10:41:51;;;;;;;9.73;4.90;;;27.80;68.70;;;;;;5040634;28;20209;-57
2023/08/17 10:44:44;;;;;;;7.10;5.07;;;28.00;67.40;;;;;;5044205;28;20210;-56
2023/08/17 10:47:23;;;;;;;8.53;5.60;;;28.10;68.60;;;;;;5046281;28;20252;-57
2023/08/17 10:50:22;;;;;;;11.63;4.30;;;28.30;68.50;;;;;;5044602;28;20618;-57
2023/08/17 10:52:50;;;;;;;7.65;5.10;;;28.50;63.00;;;;;;5037923;28;20206;-57
2023/08/17 10:55:16;;;;;;;7.30;5.15;;;28.60;65.20;;;;;;5045794;28;20171;-57
2023/08/17 10:57:43;;;;;;;6.22;5.15;;;28.80;64.60;;;;;;5046343;28;20201;-57
2023/08/17 11:00:20;;;;;;;5.07;4.68;;;29.00;63.90;;;;;;5039958;28;20186;-56
2023/08/17 11:02:54;;;;;;;7.00;5.00;;;29.10;62.00;;;;;;5039864;28;20860;-55
2023/08/17 11:05:53;;;;;;;11.48;5.07;;;29.20;59.80;;;;;;5038519;28;20184;-57
2023/08/17 11:08:22;;;;;;;9.40;5.30;;;29.30;58.60;;;;;;5043728;28;20195;-57
2023/08/17 11:11:04;;;;;;;7.30;4.80;;;29.40;60.10;;;;;;5041308;28;20172;-57
2023/08/17 11:13:41;;;;;;;8.68;4.65;;;29.60;62.10;;;;;;5039204;28;20188;-58
2023/08/17 11:16:08;;;;;;;5.82;5.00;;;29.70;59.90;;;;;;5042040;28;20178;-58
2023/08/17 11:18:35;;;;;;;5.20;4.70;;;29.50;59.20;;;;;;5044230;28;20237;-58
2023/08/17 11:21:03;;;;;;;6.50;4.97;;;29.40;59.80;;;;;;5041007;28;20231;-57
2023/08/17 11:23:30;;;;;;;6.05;5.55;;;29.40;60.20;;;;;;5040522;28;20178;-56
2023/08/17 11:25:56;;;;;;;8.70;5.07;;;29.50;61.80;;;;;;5039767;28;20277;-56
2023/08/17 11:28:23;;;;;;;5.78;5.03;;;29.70;62.40;;;;;;5038375;28;20205;-56
2023/08/17 11:31:00;;;;;;;7.03;5.47;;;29.70;59.90;;;;;;5041100;28;20179;-57
2023/08/17 11:33:26;;;;;;;7.47;5.45;;;29.40;57.20;;;;;;5040593;28;20186;-58
2023/08/17 11:36:00;;;;;;;8.13;5.32;;;29.10;58.50;;;;;;5039601;28;20202;-57
2023/08/17 11:38:30;;;;;;;8.05;5.45;;;28.70;58.90;;;;;;5035821;28;20275;-56
2023/08/17 11:40:57;;;;;;;6.20;4.90;;;28.30;60.70;;;;;;5040466;28;20840;-57
2023/08/17 11:43:23;;;;;;;6.78;4.35;;;27.90;63.00;;;;;;5043112;28;20175;-56
2023/08/17 11:45:49;;;;;;;9.27;5.22;;;27.60;60.20;;;;;;5046368;28;20591;-57
2023/08/17 11:48:16;;;;;;;10.30;5.45;;;27.00;65.50;;;;;;5046566;28;20199;-56
2023/08/17 11:50:42;;;;;;;8.67;4.97;;;26.30;87.30;;;;;;5038398;28;20680;-57
2023/08/17 11:53:08;;;;;;;12.17;5.73;;;25.10;80.80;;;;;;5040012;28;20632;-56
2023/08/17 11:55:34;;;;;;;11.03;5.00;;;23.90;84.70;;;;;;5038952;28;20430;-58
2023/08/17 11:58:01;;;;;;;9.57;4.90;;;22.70;97.60;;;;;;5043817;28;20192;-56
2023/08/17 12:00:27;;;;;;;20.63;5.50;;;21.80;99.90;;;;;;5036574;28;20191;-57
2023/08/17 12:02:53;;;;;;;5.00;4.10;;;21.10;99.90;;;;;;5044584;28;20423;-56
2023/08/17 12:05:27;;;;;;;10.03;5.20;;;20.60;99.90;;;;;;5039160;28;20176;-56
2023/08/17 12:07:53;;;;;;;9.03;5.13;;;20.30;99.90;;;;;;5042163;28;20448;-57
2023/08/17 12:10:20;;;;;;;14.57;5.50;;;20.00;99.90;;;;;;5042406;28;20495;-58
2023/08/17 12:12:49;;;;;;;7.57;5.30;;;19.90;99.90;;;;;;5043883;28;20873;-58
2023/08/17 12:15:16;;;;;;;8.57;6.00;;;19.90;99.90;;;;;;5042229;28;20421;-57
2023/08/17 12:17:52;;;;;;;12.60;6.30;;;19.90;99.90;;;;;;5045073;28;20453;-58
2023/08/17 12:20:20;;;;;;;15.40;6.10;;;19.90;99.90;;;;;;5045077;28;20438;-58
2023/08/17 12:22:46;;;;;;;22.57;7.83;;;19.90;99.90;;;;;;5048688;28;20512;-57
2023/08/17 12:25:12;;;;;;;16.13;9.10;;;19.90;99.90;;;;;;5036564;28;20476;-57
2023/08/17 12:27:39;;;;;;;15.00;7.93;;;19.90;99.90;;;;;;5036674;28;20497;-58
2023/08/17 12:30:11;;;;;;;17.23;8.67;;;19.80;99.90;;;;;;5042589;28;20193;-57
2023/08/17 12:32:36;;;;;;;22.07;7.43;;;19.80;99.90;;;;;;5035571;28;20453;-58
2023/08/17 12:35:03;;;;;;;19.57;7.80;;;19.70;99.90;;;;;;5036602;28;20435;-57
2023/08/17 12:37:29;;;;;;;19.10;8.47;;;19.70;99.90;;;;;;5035007;28;20228;-58
2023/08/17 12:39:54;;;;;;;17.47;9.03;;;19.70;99.90;;;;;;5027680;28;20429;-58
2023/08/17 12:42:20;;;;;;;20.07;9.10;;;19.80;99.90;;;;;;5032768;28;20763;-58